Cuba, MO (65453)

9:08 AM CST on December 19, 2014 (GMT -0600)
Rosati, Missouri | Change Station
CLOSE
Current Station
Personal Weather Station
Location: St. James, MO
Elevation: 1043 ft
Nearby Weather Stations

Elev 1043 ft 38.03 °N, 91.54 °W | Updated 8 minutes ago

Overcast
Overcast
32.8 °F
Feels Like 33 °F
N
3.0
Wind Variable Wind from SE
Gusts 4.0 mph

Today
High -- | Low -- °F
--% Chance of Precip.
Yesterday
High -- | Low -- °F
Precip. -- in
7:17 AM 4:48 PM
Waning Crescent, 7% visible
Pressure 30.29 in
Visibility 9.0 miles
Clouds Mostly Cloudy 800 ft
Overcast 1200 ft
Windchill 33 °F
Dew Point 32 °F
Humidity 96%
Rainfall 0.02 in
Snow Depth Not available.
UV 0 out of 12
Pollen .40 out of 12
Air Quality Not available.
Flu Activity Not available.
METAR KVIH 191453Z AUTO 10004KT 9SM BKN008 OVC012 01/M01 A3026 RMK AO2 CIG 004V011 SLP256 T00061006 53008

More Conditions Fewer Conditions

Pressure 30.29 in
Visibility 9.0 miles
Clouds Mostly Cloudy 800 ft
Overcast 1200 ft
Windchill 33 °F
Dew Point 32 °F
Humidity 96%
Rainfall 0.02 in
Snow Depth Not available.
UV 0 out of 12
Pollen .40 out of 12
Air Quality Not available.
Flu Activity Not available.
METAR KVIH 191453Z AUTO 10004KT 9SM BKN008 OVC012 01/M01 A3026 RMK AO2 CIG 004V011 SLP256 T00061006 53008

More Conditions Fewer Conditions

10-Day Weather Forecast

Almanac

Astronomy

Dec. 19, 2014 Rise Set
Actual Time
Civil Twilight
Nautical Twilight
Astronomical Twilight
Moon
Length of Visible Light
Length of Day
Tomorrow will be .
, % of the Moon is Illuminated

Today's Extremes

State Highs State Lows

Community

WunderPhotos

Upload Photos

1,778,993 photos uploaded!

WunderBlogs® & News

Nearby

Air Quality

  Air Quality AQ Index Pollutant
Not available.

Snow Depth

Station Depth Elevation

Earthquake Activity

City Distance Mag. Time & Date
Minimum magnitude displayed is 2.5.

Coastal Water Temperatures

Place Temperature

Nearby Weather Stations